Buoy 46928

sailwx.info

Track history (hours):
 
Tides and Currents Weather Stations Pressure Air Temp Water Temp Dewpoint Dewpoint Depression Visibility Wind Speed Wind Dir Waves Ship Positions

Drifting buoy 46928

Last reported at 2015-Apr-27 08:30 UTC. Time now 2015-Apr-27 12:08 UTC.
Position N 54°54' W 135°21'.

Barometer 1009.8 mb
Water temperature 8.2 ° C

Date/timePositionNaut miles runAvg speedWind from/ knotsBaromVisibWave heightAir tempDewpointWater temp
2015-Apr-27 08:30N 54°54' W 135°21'0 0.2 1009.8 8.2
2015-Apr-27 06:30N 54°54' W 135°21'1 0.6 1009.5 8.1
2015-Apr-27 04:30N 54°53' W 135°21'1 0.4 1008.8 8.0
2015-Apr-27 02:30N 54°52' W 135°21'4 0.6 1007.9 8.0
2015-Apr-26 19:30N 54°48' W 135°21'1 0.2 1003.3 8.0
2015-Apr-26 16:30N 54°47' W 135°21'10 0.8 1000.8 8.0
2015-Apr-26 03:30N 54°37' W 135°20'3 0.7 1004.2 7.8
2015-Apr-25 23:30N 54°34' W 135°20'3 0.8 1008.1 7.8
2015-Apr-25 19:30N 54°31' W 135°18'2 0.3 1011.1 7.8
2015-Apr-25 13:30N 54°29' W 135°18'1 0.4 1012.1 7.7
2015-Apr-25 10:30N 54°28' W 135°19'2 0.4 1012.8 7.8
2015-Apr-25 05:30N 54°26' W 135°19'0 0.1 1012.0 7.8
2015-Apr-25 04:30N 54°26' W 135°18'2 0.4 1011.8 7.8
2015-Apr-24 22:30N 54°24' W 135°17'3 0.4 1010.4 7.8
2015-Apr-24 15:30N 54°23' W 135°21'1 0.6 1009.1 7.4
2015-Apr-24 13:30N 54°22' W 135°21'1 0.1 1008.9 7.4
2015-Apr-24 07:30N 54°22' W 135°20'3 0.6 1009.2 7.5
2015-Apr-24 02:30N 54°19' W 135°21'1 1.1 1008.0 7.5
2015-Apr-24 01:30N 54°18' W 135°22'3 0.3 1007.5 7.5
2015-Apr-23 17:30N 54°19' W 135°18'1 0.9 1004.4 7.4
2015-Apr-23 16:30N 54°18' W 135°18'1 0.1 1004.2 7.4
2015-Apr-23 07:30N 54°18' W 135°16'1 0.2 1000.5 7.5
2015-Apr-23 04:30N 54°18' W 135°17'1 1.0 1002.8 7.5
2015-Apr-23 03:30N 54°17' W 135°19'5 1.4 1001.1 7.5
2015-Apr-22 23:30N 54°12' W 135°17'5 0.5 1006.0 7.4
2015-Apr-22 13:30N 54°08' W 135°19'2 0.5 1019.4 7.5
2015-Apr-22 09:30N 54°06' W 135°20'0 0.0 1022.5 7.5
2015-Apr-22 07:30N 54°06' W 135°20'2 0.4 1023.4 7.6
2015-Apr-22 01:30N 54°04' W 135°23'0 0.2 1024.4 7.6
2015-Apr-21 23:30N 54°04' W 135°22'2 0.5 1023.8 7.6
2015-Apr-21 20:30N 54°04' W 135°25'1 0.7 1022.7 7.5
2015-Apr-21 18:30N 54°05' W 135°27'0 0.0 1021.8 7.5
2015-Apr-21 17:30N 54°05' W 135°27'0 0.0 1021.2 7.4
2015-Apr-21 16:30N 54°05' W 135°27'0 0.4 1020.5 7.4
2015-Apr-21 15:30N 54°04' W 135°28'1 0.2 1020.0 7.4
2015-Apr-21 11:30N 54°04' W 135°29'3 0.3 1017.7 7.5
2015-Apr-21 01:30N 54°03' W 135°35'1 0.4 1013.3 8.2
2015-Apr-20 22:30N 54°02' W 135°35'1 0.1 1013.0 8.3
2015-Apr-20 16:30N 54°02' W 135°37'2 1.0 1012.1 8.1
2015-Apr-20 14:30N 54°03' W 135°40'3 0.3 1011.0 8.0
2015-Apr-20 04:30N 54°01' W 135°44'0 0.0 1012.0 8.0
2015-Apr-19 14:30N 54°01' W 135°44'2 0.6 1019.7 7.9
2015-Apr-19 11:30N 53°59' W 135°44'1 0.3 1019.7 8.0
2015-Apr-19 07:30N 53°59' W 135°46'10 0.7 1020.8 8.0
2015-Apr-18 16:30N 53°49' W 135°53'0 0.0 1027.9 7.4
2015-Apr-18 15:30N 53°49' W 135°53'4 0.9 1028.1 7.4
2015-Apr-18 11:30N 53°46' W 135°56'2 0.6 1028.8 7.3
2015-Apr-18 08:30N 53°44' W 135°55'3 0.8 1029.3 7.3
2015-Apr-18 04:30N 53°44' W 136°01'2 0.9 1029.5 7.3
2015-Apr-18 02:30N 53°42' W 136°02'1 0.6 1030.0 7.4
2015-Apr-18 01:30N 53°42' W 136°03'3 0.7 1030.4 7.4
2015-Apr-17 21:30N 53°40' W 136°05'0 0.2 1030.0 7.4
2015-Apr-17 19:30N 53°40' W 136°05'2 0.8 1029.0 7.3
2015-Apr-17 16:30N 53°40' W 136°10'3 0.9 1026.9 7.2
2015-Apr-17 13:30N 53°39' W 136°14'   1024.9 7.2
Track history (hours):
 
Tides and Currents Weather Stations Pressure Air Temp Water Temp Dewpoint Dewpoint Depression Visibility Wind Speed Wind Dir Waves Ship Positions

Drifting buoy 46928

Last reported at 2015-Apr-27 08:30 UTC. Time now 2015-Apr-27 12:08 UTC.
Position N 54°54' W 135°21'.

Barometer 1009.8 mb
Water temperature 8.2 ° C

Date/timePositionNaut miles runAvg speedWind from/ knotsBaromVisibWave heightAir tempDewpointWater temp
2015-Apr-27 08:30N 54°54' W 135°21'0 0.2 1009.8 8.2
2015-Apr-27 06:30N 54°54' W 135°21'1 0.6 1009.5 8.1
2015-Apr-27 04:30N 54°53' W 135°21'1 0.4 1008.8 8.0
2015-Apr-27 02:30N 54°52' W 135°21'4 0.6 1007.9 8.0
2015-Apr-26 19:30N 54°48' W 135°21'1 0.2 1003.3 8.0
2015-Apr-26 16:30N 54°47' W 135°21'10 0.8 1000.8 8.0
2015-Apr-26 03:30N 54°37' W 135°20'3 0.7 1004.2 7.8
2015-Apr-25 23:30N 54°34' W 135°20'3 0.8 1008.1 7.8
2015-Apr-25 19:30N 54°31' W 135°18'2 0.3 1011.1 7.8
2015-Apr-25 13:30N 54°29' W 135°18'1 0.4 1012.1 7.7
2015-Apr-25 10:30N 54°28' W 135°19'2 0.4 1012.8 7.8
2015-Apr-25 05:30N 54°26' W 135°19'0 0.1 1012.0 7.8
2015-Apr-25 04:30N 54°26' W 135°18'2 0.4 1011.8 7.8
2015-Apr-24 22:30N 54°24' W 135°17'3 0.4 1010.4 7.8
2015-Apr-24 15:30N 54°23' W 135°21'1 0.6 1009.1 7.4
2015-Apr-24 13:30N 54°22' W 135°21'1 0.1 1008.9 7.4
2015-Apr-24 07:30N 54°22' W 135°20'3 0.6 1009.2 7.5
2015-Apr-24 02:30N 54°19' W 135°21'1 1.1 1008.0 7.5
2015-Apr-24 01:30N 54°18' W 135°22'3 0.3 1007.5 7.5
2015-Apr-23 17:30N 54°19' W 135°18'1 0.9 1004.4 7.4
2015-Apr-23 16:30N 54°18' W 135°18'1 0.1 1004.2 7.4
2015-Apr-23 07:30N 54°18' W 135°16'1 0.2 1000.5 7.5
2015-Apr-23 04:30N 54°18' W 135°17'1 1.0 1002.8 7.5
2015-Apr-23 03:30N 54°17' W 135°19'5 1.4 1001.1 7.5
2015-Apr-22 23:30N 54°12' W 135°17'5 0.5 1006.0 7.4
2015-Apr-22 13:30N 54°08' W 135°19'2 0.5 1019.4 7.5
2015-Apr-22 09:30N 54°06' W 135°20'0 0.0 1022.5 7.5
2015-Apr-22 07:30N 54°06' W 135°20'2 0.4 1023.4 7.6
2015-Apr-22 01:30N 54°04' W 135°23'0 0.2 1024.4 7.6
2015-Apr-21 23:30N 54°04' W 135°22'2 0.5 1023.8 7.6
2015-Apr-21 20:30N 54°04' W 135°25'1 0.7 1022.7 7.5
2015-Apr-21 18:30N 54°05' W 135°27'0 0.0 1021.8 7.5
2015-Apr-21 17:30N 54°05' W 135°27'0 0.0 1021.2 7.4
2015-Apr-21 16:30N 54°05' W 135°27'0 0.4 1020.5 7.4
2015-Apr-21 15:30N 54°04' W 135°28'1 0.2 1020.0 7.4
2015-Apr-21 11:30N 54°04' W 135°29'3 0.3 1017.7 7.5
2015-Apr-21 01:30N 54°03' W 135°35'1 0.4 1013.3 8.2
2015-Apr-20 22:30N 54°02' W 135°35'1 0.1 1013.0 8.3
2015-Apr-20 16:30N 54°02' W 135°37'2 1.0 1012.1 8.1
2015-Apr-20 14:30N 54°03' W 135°40'3 0.3 1011.0 8.0
2015-Apr-20 04:30N 54°01' W 135°44'0 0.0 1012.0 8.0
2015-Apr-19 14:30N 54°01' W 135°44'2 0.6 1019.7 7.9
2015-Apr-19 11:30N 53°59' W 135°44'1 0.3 1019.7 8.0
2015-Apr-19 07:30N 53°59' W 135°46'10 0.7 1020.8 8.0
2015-Apr-18 16:30N 53°49' W 135°53'0 0.0 1027.9 7.4
2015-Apr-18 15:30N 53°49' W 135°53'4 0.9 1028.1 7.4
2015-Apr-18 11:30N 53°46' W 135°56'2 0.6 1028.8 7.3
2015-Apr-18 08:30N 53°44' W 135°55'3 0.8 1029.3 7.3
2015-Apr-18 04:30N 53°44' W 136°01'2 0.9 1029.5 7.3
2015-Apr-18 02:30N 53°42' W 136°02'1 0.6 1030.0 7.4
2015-Apr-18 01:30N 53°42' W 136°03'3 0.7 1030.4 7.4
2015-Apr-17 21:30N 53°40' W 136°05'0 0.2 1030.0 7.4
2015-Apr-17 19:30N 53°40' W 136°05'2 0.8 1029.0 7.3
2015-Apr-17 16:30N 53°40' W 136°10'3 0.9 1026.9 7.2
2015-Apr-17 13:30N 53°39' W 136°14'   1024.9 7.2

Dump ship's entire track history